createdAt,value
2016-11-03T00:02:34.931Z,3.7
2016-11-03T00:12:34.923Z,3.6
2016-11-03T00:22:34.924Z,3.5
2016-11-03T00:32:34.936Z,3.5
2016-11-03T00:42:34.928Z,3.5
2016-11-03T00:52:34.933Z,3.5
2016-11-03T01:02:34.940Z,3.6
2016-11-03T01:12:34.940Z,3.7
2016-11-03T01:22:34.931Z,3.7
2016-11-03T01:32:34.946Z,3.7
2016-11-03T01:42:34.939Z,3.7
2016-11-03T01:52:34.940Z,3.8
2016-11-03T02:02:34.950Z,3.7
2016-11-03T02:12:34.941Z,3.7
2016-11-03T02:22:34.945Z,3.7
2016-11-03T02:32:34.946Z,3.7
2016-11-03T02:42:34.936Z,3.6
2016-11-03T02:52:34.948Z,3.7
2016-11-03T03:02:34.940Z,3.6
2016-11-03T03:12:34.938Z,3.6
2016-11-03T03:22:34.944Z,3.6
2016-11-03T03:32:34.944Z,3.7
2016-11-03T03:42:34.943Z,3.7
2016-11-03T03:52:34.945Z,3.8
2016-11-03T04:02:34.939Z,3.9
2016-11-03T04:12:34.948Z,3.9
2016-11-03T04:22:34.953Z,4
2016-11-03T04:32:34.944Z,4
2016-11-03T04:42:34.973Z,4
2016-11-03T04:52:34.953Z,4.1
2016-11-03T05:02:34.957Z,4.1
2016-11-03T05:12:34.963Z,4.1
2016-11-03T05:22:34.996Z,4.1
2016-11-03T05:32:34.963Z,4.2
2016-11-03T05:42:34.971Z,4.1
2016-11-03T05:52:34.960Z,4.1
2016-11-03T06:02:34.967Z,4.1
2016-11-03T06:12:34.967Z,4
2016-11-03T06:22:34.960Z,4
2016-11-03T06:32:34.958Z,4
2016-11-03T06:42:34.966Z,3.9
2016-11-03T06:52:34.960Z,3.9
2016-11-03T07:02:34.965Z,3.8
2016-11-03T07:12:34.973Z,3.8
2016-11-03T07:22:34.962Z,3.9
2016-11-03T07:32:34.971Z,4
2016-11-03T07:42:34.971Z,4.2
2016-11-03T07:52:34.966Z,4.3
2016-11-03T08:02:34.959Z,4.5
2016-11-03T08:12:34.949Z,4.5
2016-11-03T08:22:34.957Z,4.6
2016-11-03T08:32:34.958Z,4.7
2016-11-03T08:42:34.959Z,4.8
2016-11-03T08:52:34.958Z,5
2016-11-03T09:02:34.956Z,5.1
2016-11-03T09:12:34.953Z,5.2
2016-11-03T09:22:34.944Z,5.3
2016-11-03T09:32:34.950Z,5.4
2016-11-03T09:42:34.974Z,5.6
2016-11-03T09:52:34.962Z,5.7
2016-11-03T10:02:34.958Z,5.8
2016-11-03T10:12:34.980Z,6
2016-11-03T10:22:34.961Z,6.2
2016-11-03T10:32:34.961Z,6.3
2016-11-03T10:42:34.955Z,6.4
2016-11-03T10:52:34.966Z,6.6
2016-11-03T11:02:34.956Z,6.7
2016-11-03T11:12:34.958Z,6.8
2016-11-03T11:22:34.965Z,7
2016-11-03T11:32:34.966Z,7
2016-11-03T11:42:34.956Z,7
2016-11-03T11:52:34.972Z,7.1
2016-11-03T12:02:34.971Z,7.2
2016-11-03T12:12:34.973Z,7.3
2016-11-03T12:22:34.969Z,7.3
2016-11-03T12:32:34.987Z,7.3
2016-11-03T12:42:34.981Z,7.4
2016-11-03T12:52:34.996Z,7.5
2016-11-03T13:02:34.985Z,7.5
2016-11-03T13:12:34.993Z,7.5
2016-11-03T13:22:34.999Z,7.6
2016-11-03T13:32:34.991Z,7.7
2016-11-03T13:42:35.003Z,7.8
2016-11-03T13:52:35.010Z,7.8
2016-11-03T14:02:35.009Z,7.6
2016-11-03T14:12:35.002Z,7.6
2016-11-03T14:22:35.006Z,7.6
2016-11-03T14:32:35.016Z,7.6
2016-11-03T14:42:35.015Z,7.5
2016-11-03T14:52:35.027Z,7.5
2016-11-03T15:02:35.030Z,7.5
2016-11-03T15:12:35.018Z,7.4
2016-11-03T15:22:35.070Z,7.4
2016-11-03T15:32:35.019Z,7.4
2016-11-03T15:42:35.036Z,7.3
2016-11-03T15:52:35.023Z,7.2
2016-11-03T16:02:35.026Z,7
2016-11-03T16:12:35.019Z,6.9
2016-11-03T16:22:35.016Z,6.8
2016-11-03T16:32:35.020Z,6.7
2016-11-03T16:42:35.034Z,6.7
2016-11-03T16:52:35.066Z,6.7
2016-11-03T17:02:35.039Z,6.6
2016-11-03T17:12:35.038Z,6.4
2016-11-03T17:22:35.027Z,6.3
2016-11-03T17:32:35.024Z,6.3
2016-11-03T17:42:35.025Z,6.2
2016-11-03T17:52:35.026Z,6.1
2016-11-03T18:02:35.024Z,6.1
2016-11-03T18:12:35.037Z,6.1
2016-11-03T18:22:35.049Z,6.1
2016-11-03T18:32:35.086Z,6
2016-11-03T18:42:35.061Z,6.1
2016-11-03T18:52:35.063Z,6.1
2016-11-03T19:02:35.047Z,6.1
2016-11-03T19:12:35.105Z,6.1
2016-11-03T19:22:35.037Z,6.1
2016-11-03T19:32:35.051Z,6.1
2016-11-03T19:42:35.035Z,6.1
2016-11-03T19:52:35.032Z,6.2
2016-11-03T20:02:35.046Z,6.1
2016-11-03T20:12:35.049Z,6.1
2016-11-03T20:22:35.047Z,6
2016-11-03T20:32:35.148Z,6
2016-11-03T20:42:35.045Z,6
2016-11-03T20:52:35.038Z,6
2016-11-03T21:02:35.092Z,6
2016-11-03T21:12:35.068Z,6.1
2016-11-03T21:22:35.043Z,6.1
2016-11-03T21:32:35.046Z,6
2016-11-03T21:42:35.042Z,6
2016-11-03T21:52:35.051Z,5.9
2016-11-03T22:02:35.050Z,5.9
2016-11-03T22:12:35.050Z,5.9
2016-11-03T22:22:35.054Z,5.9
2016-11-03T22:32:35.046Z,5.9
2016-11-03T22:42:35.042Z,5.9
2016-11-03T22:52:35.054Z,5.9
2016-11-03T23:02:35.061Z,5.9
2016-11-03T23:12:35.062Z,5.9
2016-11-03T23:22:35.052Z,5.9
2016-11-03T23:32:35.055Z,5.9
2016-11-03T23:42:35.055Z,5.9
2016-11-03T23:52:35.057Z,5.9
